createdAt,value
2022-12-15T00:01:42.336Z,100375.97
2022-12-15T00:04:27.411Z,100362.59
2022-12-15T00:07:12.169Z,100369.06
2022-12-15T00:09:57.014Z,100367.88
2022-12-15T00:12:42.043Z,100369.88
2022-12-15T00:15:27.627Z,100362.69
2022-12-15T00:18:12.569Z,100369.06
2022-12-15T00:20:57.761Z,100352.78
2022-12-15T00:23:42.932Z,100364.38
2022-12-15T00:26:27.979Z,100371.56
2022-12-15T00:29:12.842Z,100361.75
2022-12-15T00:31:57.767Z,100359.63
2022-12-15T00:34:42.679Z,100362.97
2022-12-15T00:37:27.884Z,100364.16
2022-12-15T00:39:58.766Z,100370.09
2022-12-15T00:42:28.831Z,100371.41
2022-12-15T00:44:56.300Z,100380.69
2022-12-15T00:47:23.394Z,100381.38
2022-12-15T00:50:08.435Z,100381.22
2022-12-15T00:52:53.967Z,100383.00
2022-12-15T00:55:39.459Z,100381.03
2022-12-15T00:58:24.563Z,100381.53
2022-12-15T01:01:10.120Z,100382.13
2022-12-15T01:03:55.298Z,100372.91
2022-12-15T01:06:40.711Z,100386.31
2022-12-15T01:09:27.337Z,100382.41
2022-12-15T01:12:12.794Z,100385.63
2022-12-15T01:14:57.933Z,100396.78
2022-12-15T01:17:43.349Z,100387.34
2022-12-15T01:20:19.301Z,100402.16
2022-12-15T01:22:51.127Z,100401.63
2022-12-15T01:25:18.970Z,100404.44
2022-12-15T01:27:46.037Z,100401.13
2022-12-15T01:30:14.946Z,100402.66
2022-12-15T01:32:45.795Z,100403.19
2022-12-15T01:35:13.006Z,100405.63
2022-12-15T01:37:39.615Z,100406.59
2022-12-15T01:40:25.993Z,100410.50
2022-12-15T01:42:53.101Z,100411.50
2022-12-15T01:45:46.008Z,100416.72
2022-12-15T01:48:17.653Z,100419.25
2022-12-15T01:50:47.270Z,100424.63
2022-12-15T01:53:15.157Z,100424.06
2022-12-15T01:55:44.280Z,100429.34
2022-12-15T01:58:17.311Z,100431.22
2022-12-15T02:00:43.956Z,100432.75
2022-12-15T02:03:11.949Z,100434.09
2022-12-15T02:05:39.844Z,100435.38
2022-12-15T02:08:07.076Z,100434.69
2022-12-15T02:10:40.727Z,100433.59
2022-12-15T02:13:33.470Z,100433.31
2022-12-15T02:16:12.237Z,100435.13
2022-12-15T02:18:56.757Z,100429.94
2022-12-15T02:21:29.817Z,100436.56
2022-12-15T02:24:33.442Z,100435.38
2022-12-15T02:27:22.609Z,100431.44
2022-12-15T02:29:54.818Z,100438.59
2022-12-15T02:32:27.407Z,100434.09
2022-12-15T02:35:14.199Z,100434.59
2022-12-15T02:37:41.210Z,100441.03
2022-12-15T02:40:10.218Z,100436.63
2022-12-15T02:42:43.606Z,100439.75
2022-12-15T02:45:14.168Z,100448.94
2022-12-15T02:48:01.167Z,100441.97
2022-12-15T02:50:58.597Z,100445.16
2022-12-15T02:53:49.110Z,100441.66
2022-12-15T02:56:27.949Z,100443.09
2022-12-15T02:58:54.304Z,100436.47
2022-12-15T03:01:44.196Z,100443.59
2022-12-15T03:04:12.350Z,100439.09
2022-12-15T03:06:39.533Z,100434.00
2022-12-15T03:09:06.042Z,100440.53
2022-12-15T03:11:32.449Z,100447.69
2022-12-15T03:13:58.978Z,100446.75
2022-12-15T03:16:25.541Z,100454.38
2022-12-15T03:18:52.575Z,100454.84
2022-12-15T03:21:19.140Z,100462.75
2022-12-15T03:23:45.622Z,100467.41
2022-12-15T03:26:12.289Z,100468.22
2022-12-15T03:28:38.787Z,100466.28
2022-12-15T03:31:05.257Z,100471.00
2022-12-15T03:33:34.210Z,100473.59
2022-12-15T03:36:01.243Z,100471.13
2022-12-15T03:38:27.655Z,100466.03
2022-12-15T03:40:54.077Z,100467.56
2022-12-15T03:43:20.511Z,100466.00
2022-12-15T03:45:47.071Z,100458.41
2022-12-15T03:48:13.499Z,100468.91
2022-12-15T03:50:40.788Z,100471.72
2022-12-15T03:53:07.432Z,100475.28
2022-12-15T03:55:35.229Z,100476.28
2022-12-15T03:58:02.721Z,100489.94
2022-12-15T04:00:29.460Z,100484.91
2022-12-15T04:02:56.412Z,100481.59
2022-12-15T04:05:31.420Z,100478.78
2022-12-15T04:07:59.261Z,100477.59
2022-12-15T04:10:33.582Z,100480.84
2022-12-15T04:13:12.072Z,100479.53
2022-12-15T04:15:39.990Z,100485.09
2022-12-15T04:18:12.531Z,100475.56
2022-12-15T04:20:40.186Z,100481.41
2022-12-15T04:23:07.913Z,100478.34
2022-12-15T04:25:54.162Z,100469.44
2022-12-15T04:28:39.120Z,100476.09
2022-12-15T04:31:29.915Z,100479.09
2022-12-15T04:34:20.010Z,100478.78
2022-12-15T04:37:07.338Z,100475.94
2022-12-15T04:39:56.835Z,100479.09
2022-12-15T04:42:41.951Z,100481.31
2022-12-15T04:45:28.973Z,100480.53
2022-12-15T04:48:13.873Z,100487.34
2022-12-15T04:50:58.937Z,100487.22
2022-12-15T04:53:44.090Z,100494.13
2022-12-15T04:56:33.829Z,100496.41
2022-12-15T04:59:19.563Z,100500.41
2022-12-15T05:02:05.100Z,100496.25
2022-12-15T05:04:50.496Z,100489.94
2022-12-15T05:07:35.611Z,100489.34
2022-12-15T05:10:21.212Z,100495.13
2022-12-15T05:13:05.958Z,100487.09
2022-12-15T05:15:52.452Z,100490.81
2022-12-15T05:18:38.273Z,100497.31
2022-12-15T05:21:23.805Z,100498.72
2022-12-15T05:24:09.190Z,100500.41
2022-12-15T05:26:54.059Z,100495.44
2022-12-15T05:29:39.596Z,100492.84
2022-12-15T05:32:07.868Z,100495.47
2022-12-15T05:34:35.702Z,100508.41
2022-12-15T05:37:04.186Z,100513.53
2022-12-15T05:39:30.753Z,100512.53
2022-12-15T05:41:57.432Z,100516.41
2022-12-15T05:44:25.366Z,100507.47
2022-12-15T05:46:52.263Z,100502.13
2022-12-15T05:49:19.046Z,100504.66
2022-12-15T05:51:47.426Z,100509.59
2022-12-15T05:54:17.539Z,100508.41
2022-12-15T05:56:45.163Z,100522.69
2022-12-15T05:59:12.348Z,100526.06
2022-12-15T06:01:39.013Z,100529.47
2022-12-15T06:04:05.960Z,100528.50
2022-12-15T06:06:32.518Z,100527.50
2022-12-15T06:08:59.044Z,100528.34
2022-12-15T06:11:25.730Z,100532.78
2022-12-15T06:13:52.996Z,100535.41
2022-12-15T06:16:21.472Z,100545.03
2022-12-15T06:18:55.215Z,100541.16
2022-12-15T06:21:24.433Z,100539.75
2022-12-15T06:23:51.663Z,100541.78
2022-12-15T06:26:19.317Z,100554.72
2022-12-15T06:28:46.643Z,100546.22
2022-12-15T06:31:14.487Z,100549.84
2022-12-15T06:33:41.323Z,100550.47
2022-12-15T06:36:13.343Z,100548.84
2022-12-15T06:38:43.388Z,100553.75
2022-12-15T06:41:12.112Z,100552.63
2022-12-15T06:43:38.900Z,100558.78
2022-12-15T06:46:05.553Z,100542.41
2022-12-15T06:48:31.962Z,100551.56
2022-12-15T06:51:04.224Z,100552.03
2022-12-15T06:53:31.389Z,100544.94
2022-12-15T06:56:02.749Z,100553.59
2022-12-15T06:58:29.494Z,100550.63
2022-12-15T07:00:56.459Z,100555.06
2022-12-15T07:03:23.200Z,100560.78
2022-12-15T07:06:05.007Z,100557.97
2022-12-15T07:12:28.932Z,100566.25
2022-12-15T08:36:03.591Z,100628.69
2022-12-15T08:38:31.947Z,100623.56
2022-12-15T08:41:29.127Z,100626.06
2022-12-15T11:09:04.971Z,100616.13
2022-12-15T11:19:14.949Z,100620.59
2022-12-15T11:21:53.373Z,100623.13
2022-12-15T11:24:32.815Z,100616.66
2022-12-15T11:27:15.718Z,100618.38
2022-12-15T11:29:57.414Z,100635.34
2022-12-15T11:32:29.831Z,100634.81
2022-12-15T11:34:56.687Z,100634.03
2022-12-15T11:37:41.411Z,100627.44
2022-12-15T11:40:42.451Z,100620.59
2022-12-15T11:43:18.395Z,100627.78
2022-12-15T11:46:13.205Z,100637.09
2022-12-15T11:48:58.430Z,100632.56
2022-12-15T11:51:44.675Z,100649.16
2022-12-15T11:54:43.543Z,100645.44
2022-12-15T11:57:21.800Z,100643.47
2022-12-15T12:00:06.705Z,100645.25
2022-12-15T12:02:57.437Z,100640.44
2022-12-15T12:05:39.238Z,100637.66
2022-12-15T12:08:15.352Z,100648.06
2022-12-15T12:11:31.817Z,100637.91
2022-12-15T12:38:01.338Z,100626.66
2022-12-15T12:44:50.122Z,100627.38
2022-12-15T15:13:02.493Z,100548.25
2022-12-15T15:15:29.025Z,100548.69
2022-12-15T15:17:59.014Z,100554.94
2022-12-15T15:20:32.136Z,100551.00
2022-12-15T15:23:19.300Z,100547.16
2022-12-15T15:25:50.135Z,100543.78
2022-12-15T15:28:19.292Z,100545.03
2022-12-15T15:30:56.178Z,100550.88
2022-12-15T15:33:24.500Z,100551.09
2022-12-15T15:35:53.442Z,100546.75
2022-12-15T15:38:23.011Z,100546.16
2022-12-15T15:40:57.413Z,100546.56
2022-12-15T15:43:26.021Z,100546.34
2022-12-15T15:46:02.741Z,100539.44
2022-12-15T15:48:50.371Z,100547.75
2022-12-15T15:51:17.302Z,100539.16
2022-12-15T15:53:44.511Z,100542.88
2022-12-15T15:56:14.091Z,100544.34
2022-12-15T15:58:40.931Z,100544.84
2022-12-15T16:01:12.875Z,100546.78
2022-12-15T16:03:40.404Z,100545.16
2022-12-15T16:06:16.342Z,100543.06
2022-12-15T16:08:43.409Z,100541.16
2022-12-15T16:11:12.887Z,100541.03
2022-12-15T16:13:39.882Z,100542.88
2022-12-15T16:16:06.792Z,100542.31
2022-12-15T16:18:33.627Z,100545.38
2022-12-15T16:21:00.356Z,100550.00
2022-12-15T16:23:28.833Z,100551.50
2022-12-15T16:25:58.362Z,100549.94
2022-12-15T16:28:28.114Z,100561.19
2022-12-15T16:30:55.668Z,100559.56
2022-12-15T16:33:22.318Z,100559.50
2022-12-15T16:35:50.387Z,100559.69
2022-12-15T16:38:32.641Z,100560.19
2022-12-15T16:41:06.651Z,100552.28
2022-12-15T16:43:38.208Z,100555.50
2022-12-15T16:46:07.107Z,100546.25
2022-12-15T16:48:34.018Z,100548.75
2022-12-15T16:51:00.979Z,100546.72
2022-12-15T16:53:33.229Z,100548.38
2022-12-15T16:56:08.647Z,100549.88
2022-12-15T16:58:36.077Z,100550.16
2022-12-15T17:01:02.640Z,100556.28
2022-12-15T17:03:29.531Z,100555.03
2022-12-15T17:06:01.033Z,100558.06
2022-12-15T17:08:34.182Z,100565.75
2022-12-15T17:11:01.159Z,100572.00
2022-12-15T17:13:39.043Z,100563.00
2022-12-15T17:16:13.554Z,100570.03
2022-12-15T17:18:40.737Z,100557.63
2022-12-15T17:21:18.653Z,100570.50
2022-12-15T17:23:48.455Z,100569.28
2022-12-15T17:26:28.540Z,100572.72
2022-12-15T17:28:59.660Z,100578.28
2022-12-15T17:31:35.227Z,100579.13
2022-12-15T17:34:27.536Z,100577.91
2022-12-15T17:36:54.781Z,100573.09
2022-12-15T17:39:22.411Z,100575.84
2022-12-15T17:41:59.973Z,100575.53
2022-12-15T17:44:35.123Z,100584.25
2022-12-15T17:47:03.878Z,100597.03
2022-12-15T17:49:35.481Z,100584.91
2022-12-15T17:52:19.542Z,100588.63
2022-12-15T17:54:46.089Z,100588.81
2022-12-15T17:57:12.861Z,100592.97
2022-12-15T17:59:39.419Z,100599.56
2022-12-15T18:02:06.179Z,100595.31
2022-12-15T18:04:32.834Z,100602.06
2022-12-15T18:07:02.018Z,100604.59
2022-12-15T18:09:29.651Z,100601.03
2022-12-15T18:11:56.138Z,100599.97
2022-12-15T18:14:22.927Z,100609.22
2022-12-15T18:16:49.862Z,100608.97
2022-12-15T18:19:16.337Z,100611.88
2022-12-15T18:21:42.869Z,100605.34
2022-12-15T18:24:17.465Z,100614.44
2022-12-15T18:26:44.280Z,100615.78
2022-12-15T18:29:20.148Z,100613.78
2022-12-15T18:31:48.548Z,100618.84
2022-12-15T18:34:21.200Z,100616.03
2022-12-15T18:36:47.722Z,100627.84
2022-12-15T18:39:24.454Z,100631.00
2022-12-15T18:41:52.344Z,100631.53
2022-12-15T18:44:27.104Z,100622.75
2022-12-15T18:46:55.078Z,100631.75
2022-12-15T18:49:22.969Z,100620.69
2022-12-15T18:51:49.695Z,100627.94
2022-12-15T18:54:18.683Z,100631.16
2022-12-15T18:56:45.589Z,100629.09
2022-12-15T18:59:15.720Z,100633.91
2022-12-15T19:01:43.974Z,100632.03
2022-12-15T19:04:10.905Z,100635.06
2022-12-15T19:06:38.477Z,100639.88
2022-12-15T19:09:15.611Z,100643.56
2022-12-15T19:12:05.991Z,100647.63
2022-12-15T19:14:41.521Z,100650.44
2022-12-15T19:17:31.483Z,100647.63
2022-12-15T19:20:16.784Z,100647.91
2022-12-15T19:22:44.408Z,100646.94
2022-12-15T19:25:25.469Z,100655.19
2022-12-15T19:27:58.301Z,100655.69
2022-12-15T19:30:30.378Z,100666.47
2022-12-15T19:32:56.982Z,100669.00
2022-12-15T19:35:24.765Z,100664.56
2022-12-15T19:37:55.004Z,100669.00
2022-12-15T19:40:25.118Z,100660.41
2022-12-15T19:42:52.906Z,100657.19
2022-12-15T19:45:27.289Z,100663.47
2022-12-15T19:47:54.162Z,100653.72
2022-12-15T19:50:26.166Z,100654.53
2022-12-15T19:52:56.880Z,100668.34
2022-12-15T19:55:29.985Z,100655.44
2022-12-15T19:57:56.394Z,100658.34
2022-12-15T20:00:24.744Z,100662.53
2022-12-15T20:02:52.431Z,100657.06
2022-12-15T20:05:19.446Z,100652.41
2022-12-15T20:07:47.048Z,100657.41
2022-12-15T20:10:24.608Z,100650.13
2022-12-15T20:12:54.237Z,100647.84
2022-12-15T20:15:23.572Z,100650.31
2022-12-15T20:17:57.071Z,100649.75
2022-12-15T20:20:26.144Z,100652.41
2022-12-15T20:22:57.242Z,100649.94
2022-12-15T20:25:26.947Z,100661.28
2022-12-15T20:27:53.465Z,100654.75
2022-12-15T20:30:27.347Z,100655.03
2022-12-15T20:32:54.087Z,100657.41
2022-12-15T20:35:22.219Z,100655.03
2022-12-15T20:37:50.723Z,100654.66
2022-12-15T20:40:34.938Z,100650.31
2022-12-15T20:43:01.454Z,100646.25
2022-12-15T20:45:27.977Z,100661.22
2022-12-15T20:47:56.322Z,100657.50
2022-12-15T20:50:41.096Z,100656.56
2022-12-15T20:53:20.247Z,100662.03
2022-12-15T20:55:47.908Z,100655.81
2022-12-15T20:58:15.331Z,100660.63
2022-12-15T21:00:42.097Z,100662.72
2022-12-15T21:03:26.505Z,100665.25
2022-12-15T21:05:55.828Z,100663.47
2022-12-15T21:08:27.960Z,100665.47
2022-12-15T21:10:59.557Z,100671.13
2022-12-15T21:13:30.187Z,100669.28
2022-12-15T21:15:57.088Z,100665.19
2022-12-15T21:21:17.475Z,100660.41
2022-12-15T21:23:44.033Z,100663.19
2022-12-15T21:26:10.643Z,100656.72
2022-12-15T21:28:37.078Z,100664.28
2022-12-15T21:31:03.676Z,100666.47
2022-12-15T21:33:30.170Z,100662.88
2022-12-15T21:35:56.742Z,100657.78
2022-12-15T21:38:32.141Z,100657.41
2022-12-15T21:41:06.776Z,100651.63
2022-12-15T21:43:35.525Z,100656.09
2022-12-15T21:46:11.177Z,100654.38
2022-12-15T21:48:56.388Z,100669.69
2022-12-15T21:51:22.862Z,100659.81
2022-12-15T21:53:49.366Z,100662.09
2022-12-15T21:56:19.841Z,100662.03
2022-12-15T21:58:52.662Z,100656.22
2022-12-15T22:01:28.809Z,100656.63
2022-12-15T22:03:57.899Z,100662.09
2022-12-15T22:06:29.637Z,100663.47
2022-12-15T22:08:58.656Z,100666.94
2022-12-15T22:11:30.848Z,100659.44
2022-12-15T22:13:59.494Z,100662.03
2022-12-15T22:16:26.020Z,100651.03
2022-12-15T22:18:57.152Z,100658.78
2022-12-15T22:21:25.115Z,100657.94
2022-12-15T22:23:52.235Z,100653.22
2022-12-15T22:26:26.848Z,100665.03
2022-12-15T22:28:56.289Z,100660.66
2022-12-15T22:31:23.157Z,100655.16
2022-12-15T22:33:49.609Z,100653.28
2022-12-15T22:36:16.040Z,100651.19
2022-12-15T22:38:42.800Z,100654.88
2022-12-15T22:41:18.571Z,100650.91
2022-12-15T22:43:50.475Z,100645.91
2022-12-15T22:46:17.180Z,100640.31
2022-12-15T22:48:47.454Z,100650.44
2022-12-15T22:51:16.294Z,100641.91
2022-12-15T22:53:43.061Z,100646.75
2022-12-15T22:56:32.167Z,100651.09
2022-12-15T22:59:03.413Z,100664.28
2022-12-15T23:01:30.128Z,100673.31
2022-12-15T23:03:56.664Z,100673.59
2022-12-15T23:06:23.687Z,100674.47
2022-12-15T23:08:55.845Z,100677.81
2022-12-15T23:11:38.943Z,100674.13
2022-12-15T23:14:13.393Z,100676.31
2022-12-15T23:16:40.191Z,100671.00
2022-12-15T23:19:08.247Z,100676.41
2022-12-15T23:21:35.363Z,100672.63
2022-12-15T23:24:01.916Z,100665.66
2022-12-15T23:26:28.313Z,100666.88
2022-12-15T23:28:55.235Z,100673.38
2022-12-15T23:31:22.087Z,100683.16
2022-12-15T23:33:49.884Z,100683.84
2022-12-15T23:36:18.913Z,100686.09
2022-12-15T23:38:45.451Z,100693.31
2022-12-15T23:41:16.377Z,100689.81
2022-12-15T23:43:43.099Z,100689.91
2022-12-15T23:46:09.600Z,100692.19
2022-12-15T23:48:38.341Z,100692.84
2022-12-15T23:51:19.008Z,100698.06
2022-12-15T23:53:46.977Z,100700.50
2022-12-15T23:56:22.906Z,100700.59
2022-12-15T23:58:55.835Z,100703.97
